Praha, Texas
Current Conditions -  °F | °C
As of 5:55 PM on Friday 24 Oct 2014 (Local Time) from K3T5 Reporting Station
Clear Clear  
Wind Chill: 83°   Ceiling: Unl
Heat Index: 83°   Visibility: 10mi
Dew Point: 62°   Wind: 0mph
Humidity: 48%   Direction: NA
Pressure: 30.07"   Gusts: NA
Location:  29.7626°N, 97.1228°W
Report Text: K3T5 242255Z AUTO 00000KT 10SM CLR 28/16 A3007 RMK AO2 T02820164
Loading
Personal Weather Stations






























Interactive Weather Map New forecast layout! Learn more

10-Day Weather Forecast

Advertisements
Track Severe Weather on mobile